Monday, January 21, 2019, 5:12 PM EST
Back to Local

KABE, Lehigh Valley International Airport

Location: Allentown, PA, United States Lat: 40.65
Local Time: 5:12 PM EST (22:12 GMT) Lon: -75.45
Time Zone: US/Eastern Elev: 393 ft

Show me the last for .
Show Coded

Time T Td Feel RH Dir Speed Gust Alt SLP Vis Weather Sky Remarks
2019-01-21 16:51 16 -9 -5 31 300° 22 33 30.25 30.28 10 CLR Peak wind: 37 mph (33 kts) from 320° at 19 min
2019-01-21 15:51 17 -8 -4 31 310° 24 36 30.22 30.24 10 CLR Peak wind: 35 mph (31 kts) from 320° at 46 min
2019-01-21 14:51 17 -7 -1 32 300° 17 24 30.20 30.22 10 CLR Peak wind: 35 mph (31 kts) from 300° at 18 min
2019-01-21 13:51 15 -7 -6 35 310° 22 31 30.18 30.20 10 CLR Peak wind: 37 mph (33 kts) from 290° at 39 min
2019-01-21 12:51 13 -4 -8 45 320° 17 29 30.18 30.20 10 BKN050 Peak wind: 35 mph (31 kts) from 280° at 14 min
6-hr Min Temp (1pm): 5.0°F
6-hr Max Temp (1pm): 12.9°F
2019-01-21 11:51 11 -6 -11 45 290° 20 30 30.18 30.20 10 BKN048 Peak wind: 35 mph (31 kts) from 320° at 32 min
2019-01-21 10:51 9 -8 -13 45 290° 20 29 30.17 30.19 10 SCT048 Peak wind: 36 mph (32 kts) from 290° at 15 min
2019-01-21 09:51 7 -9 -16 46 300° 17 28 30.14 30.16 10 SCT045 Peak wind: 29 mph (26 kts) from 290° at 21 min
2019-01-21 08:51 6 -10 -17 46 320° 21 29 30.10 30.12 10 FEW044 SCT110 Peak wind: 31 mph (27 kts) from 310° at 58 min
2019-01-21 07:51 6 -10 -17 46 300° 18 28 30.06 30.08 10 CLR Peak wind: 36 mph (32 kts) from 310° at 04 min
2019-01-21 06:51 6 -10 -19 46 300° 22 36 30.03 30.05 10 BKN041 Peak wind: 35 mph (31 kts) from 270° at 46 min
24-hr Precip Total (7am): 0.10"
6-hr Min Temp (7am): 5.0°F
6-hr Max Temp (7am): 10.9°F
2019-01-21 05:51 6 -8 -16 51 300° 15 24 29.99 30.01 10 SCT038 Peak wind: 35 mph (31 kts) from 280° at 14 min
2019-01-21 04:51 7 -8 -16 49 300° 18 30 29.97 29.99 10 CLR Peak wind: 34 mph (30 kts) from 290° at 12 min
2019-01-21 03:51 8 -8 -15 46 300° 23 30 29.95 29.97 10 FEW035 Peak wind: 32 mph (28 kts) from 290° at 29 min
2019-01-21 02:51 9 -6 -13 49 300° 17 26 29.94 29.96 10 CLR Peak wind: 29 mph (26 kts) from 300° at 19 min
2019-01-21 01:51 10 -3 -11 54 290° 18 25 29.92 29.94 10 FEW041 Peak wind: 35 mph (31 kts) from 290° at 17 min
2019-01-21 00:51 11 -4 -12 50 300° 17 33 29.89 29.90 10 BKN040 Peak wind: 37 mph (33 kts) from 300° at 12 min
6-hr Min Temp (1am): 10.9°F
6-hr Max Temp (1am): 18.0°F
2019-01-20 23:51 13 -2 -8 50 300° 16 29 29.86 29.87 10 OVC037 Peak wind: 37 mph (33 kts) from 310° at 59 min
24-hr Min Temp (12am): 12.9°F
24-hr Max Temp (12am): 39.0°F
2019-01-20 22:51 14 -1 -8 50 310° 21 36 29.83 29.84 10 FEW041 Peak wind: 36 mph (32 kts) from 330° at 54 min
2019-01-20 21:51 16 1 -4 50 300° 20 31 29.80 29.82 10 OVC042 Peak wind: 35 mph (31 kts) from 310° at 09 min
2019-01-20 20:51 17 2 -3 50 300° 21 30 29.78 29.79 10 OVC038 Peak wind: 31 mph (27 kts) from 340° at 21 min
2019-01-20 19:51 18 4 -1 53 320° 18 29 29.77 29.79 10 OVC036 Peak wind: 37 mph (33 kts) from 320° at 27 min
2019-01-20 18:51 18 5 -1 56 330° 18 26 29.73 29.75 10 BKN035 Peak wind: 39 mph (34 kts) from 320° at 15 min
6-hr Min Temp (7pm): 18.0°F
6-hr Max Temp (7pm): 28.9°F
2019-01-20 17:51 19 6 -1 56 320° 21 32 29.69 29.70 10 OVC035 Peak wind: 41 mph (36 kts) from 330° at 18 min

Support USWX by starting your Amazon purchase here.